createdAt,value
2023-01-20T00:01:15.637Z,101150.19
2023-01-20T00:03:18.418Z,101150.66
2023-01-20T00:05:21.062Z,101150.53
2023-01-20T00:07:24.018Z,101152.56
2023-01-20T00:09:26.696Z,101146.19
2023-01-20T00:11:29.875Z,101145.19
2023-01-20T00:13:32.685Z,101156.47
2023-01-20T00:15:35.650Z,101145.47
2023-01-20T00:17:38.266Z,101143.47
2023-01-20T00:19:40.902Z,101144.94
2023-01-20T00:21:43.915Z,101149.63
2023-01-20T00:23:47.576Z,101147.66
2023-01-20T00:25:50.308Z,101158.53
2023-01-20T00:27:55.647Z,101147.88
2023-01-20T00:29:58.296Z,101134.00
2023-01-20T00:32:02.524Z,101143.81
2023-01-20T00:34:05.538Z,101143.72
2023-01-20T00:36:09.045Z,101148.91
2023-01-20T00:38:11.867Z,101156.06
2023-01-20T00:40:14.621Z,101154.56
2023-01-20T00:42:17.315Z,101157.25
2023-01-20T00:44:20.008Z,101159.94
2023-01-20T00:46:23.378Z,101152.06
2023-01-20T00:48:26.215Z,101164.63
2023-01-20T00:50:28.847Z,101167.13
2023-01-20T00:52:31.482Z,101166.94
2023-01-20T00:54:34.174Z,101143.75
2023-01-20T00:56:36.775Z,101157.75
2023-01-20T00:58:39.639Z,101153.25
2023-01-20T01:00:42.505Z,101150.75
2023-01-20T01:02:45.189Z,101159.91
2023-01-20T01:04:51.299Z,101134.53
2023-01-20T01:06:54.004Z,101143.91
2023-01-20T01:08:57.320Z,101131.50
2023-01-20T01:11:00.014Z,101127.81
2023-01-20T01:13:04.430Z,101134.66
2023-01-20T01:15:07.902Z,101122.81
2023-01-20T01:17:10.578Z,101125.34
2023-01-20T01:19:13.318Z,101133.53
2023-01-20T01:21:17.493Z,101140.88
2023-01-20T01:23:20.246Z,101128.69
2023-01-20T01:25:23.119Z,101120.50
2023-01-20T01:27:27.648Z,101140.03
2023-01-20T01:29:30.369Z,101136.19
2023-01-20T01:31:33.218Z,101120.97
2023-01-20T01:33:36.854Z,101130.84
2023-01-20T01:35:39.535Z,101127.34
2023-01-20T01:37:42.233Z,101127.66
2023-01-20T01:39:45.018Z,101127.16
2023-01-20T01:41:47.753Z,101136.03
2023-01-20T01:44:21.039Z,101127.81
2023-01-20T01:46:23.771Z,101129.50
2023-01-20T01:48:37.067Z,101128.31
2023-01-20T01:50:53.442Z,101131.81
2023-01-20T01:52:57.205Z,101141.53
2023-01-20T01:55:00.450Z,101138.19
2023-01-20T01:57:04.177Z,101149.06
2023-01-20T01:59:06.834Z,101130.34
2023-01-20T02:01:10.372Z,101152.19
2023-01-20T02:03:13.864Z,101141.69
2023-01-20T02:05:17.895Z,101153.94
2023-01-20T02:07:22.293Z,101144.56
2023-01-20T02:09:26.733Z,101158.75
2023-01-20T02:11:32.983Z,101168.94
2023-01-20T02:13:36.614Z,101159.28
2023-01-20T02:15:50.199Z,101144.56
2023-01-20T02:18:16.326Z,101160.44
2023-01-20T02:20:46.479Z,101154.75
2023-01-20T02:23:10.989Z,101144.41
2023-01-20T02:25:41.549Z,101157.63
2023-01-20T02:28:05.155Z,101147.91
2023-01-20T02:30:10.632Z,101157.63
2023-01-20T02:32:31.236Z,101143.91
2023-01-20T02:34:59.386Z,101142.91
2023-01-20T02:37:25.647Z,101146.41
2023-01-20T02:39:56.670Z,101149.91
2023-01-20T02:42:08.345Z,101148.06
2023-01-20T02:44:38.506Z,101146.56
2023-01-20T02:46:59.078Z,101153.28
2023-01-20T02:49:17.481Z,101147.94
2023-01-20T02:51:27.415Z,101160.97
2023-01-20T02:53:38.583Z,101166.81
2023-01-20T02:55:46.688Z,101162.28
2023-01-20T02:57:56.056Z,101152.63
2023-01-20T03:00:06.624Z,101154.28
2023-01-20T03:02:14.076Z,101158.47
2023-01-20T03:04:22.112Z,101149.78
2023-01-20T03:06:29.166Z,101162.81
2023-01-20T03:08:33.577Z,101160.31
2023-01-20T03:10:38.980Z,101153.13
2023-01-20T03:12:55.439Z,101159.81
2023-01-20T03:14:58.159Z,101153.13
2023-01-20T03:17:02.301Z,101157.47
2023-01-20T03:19:05.039Z,101188.72
2023-01-20T03:21:10.265Z,101185.72
2023-01-20T03:23:12.983Z,101180.50
2023-01-20T03:25:18.069Z,101178.53
2023-01-20T03:27:20.687Z,101174.34
2023-01-20T03:29:23.355Z,101180.50
2023-01-20T03:31:30.529Z,101196.25
2023-01-20T03:33:34.040Z,101189.22
2023-01-20T03:35:37.269Z,101189.88
2023-01-20T03:37:40.051Z,101186.72
2023-01-20T03:39:42.828Z,101208.06
2023-01-20T03:42:20.977Z,101190.53
2023-01-20T03:45:00.962Z,101187.56
2023-01-20T03:47:31.322Z,101196.72
2023-01-20T03:49:52.022Z,101198.22
2023-01-20T03:52:09.174Z,101183.53
2023-01-20T03:54:18.839Z,101198.91
2023-01-20T03:56:33.105Z,101203.06
2023-01-20T03:58:40.998Z,101209.91
2023-01-20T04:00:47.740Z,101220.09
2023-01-20T04:02:51.418Z,101226.47
2023-01-20T04:04:54.801Z,101233.47
2023-01-20T04:06:57.856Z,101223.28
2023-01-20T04:09:05.776Z,101228.28
2023-01-20T04:11:09.019Z,101233.97
2023-01-20T04:13:11.765Z,101242.19
2023-01-20T04:15:15.396Z,101241.66
2023-01-20T04:17:18.499Z,101235.16
2023-01-20T04:19:21.196Z,101239.34
2023-01-20T04:21:39.278Z,101227.63
2023-01-20T04:23:53.128Z,101220.13
2023-01-20T04:25:55.794Z,101206.59
2023-01-20T04:27:58.573Z,101189.88
2023-01-20T04:30:01.215Z,101196.56
2023-01-20T04:32:04.897Z,101184.69
2023-01-20T04:34:08.204Z,101192.56
2023-01-20T04:36:10.844Z,101189.72
2023-01-20T04:38:13.566Z,101192.91
2023-01-20T04:40:16.495Z,101200.75
2023-01-20T04:42:19.096Z,101207.41
2023-01-20T04:44:21.815Z,101212.75
2023-01-20T04:46:24.576Z,101205.91
2023-01-20T04:48:27.240Z,101208.25
2023-01-20T04:50:29.815Z,101217.44
2023-01-20T04:52:32.470Z,101210.44
2023-01-20T04:54:35.102Z,101216.78
2023-01-20T04:56:37.698Z,101219.13
2023-01-20T04:58:40.688Z,101216.13
2023-01-20T05:00:43.792Z,101216.94
2023-01-20T05:02:47.418Z,101234.47
2023-01-20T05:04:50.150Z,101240.84
2023-01-20T05:06:52.783Z,101243.84
2023-01-20T05:08:55.439Z,101229.66
2023-01-20T05:10:58.349Z,101231.00
2023-01-20T05:13:01.670Z,101226.28
2023-01-20T05:15:04.791Z,101235.66
2023-01-20T05:17:07.519Z,101247.53
2023-01-20T05:19:11.886Z,101232.63
2023-01-20T05:21:14.564Z,101242.00
2023-01-20T05:23:17.920Z,101233.16
2023-01-20T05:25:20.574Z,101224.47
2023-01-20T05:27:23.438Z,101216.13
2023-01-20T05:29:26.244Z,101212.63
2023-01-20T05:31:29.606Z,101210.91
2023-01-20T05:33:32.477Z,101208.44
2023-01-20T05:35:35.083Z,101222.81
2023-01-20T05:37:37.865Z,101211.75
2023-01-20T05:39:40.611Z,101226.47
2023-01-20T05:41:43.248Z,101231.47
2023-01-20T05:43:46.131Z,101231.63
2023-01-20T05:45:48.773Z,101234.31
2023-01-20T05:47:58.785Z,101239.31
2023-01-20T05:50:01.390Z,101230.47
2023-01-20T05:52:04.162Z,101232.66
2023-01-20T05:54:07.155Z,101221.47
2023-01-20T05:56:12.288Z,101244.03
2023-01-20T05:58:15.727Z,101243.69
2023-01-20T06:00:19.143Z,101254.03
2023-01-20T06:02:22.037Z,101256.38
2023-01-20T06:04:24.892Z,101257.72
2023-01-20T06:06:27.744Z,101252.03
2023-01-20T06:08:30.763Z,101261.06
2023-01-20T06:10:33.657Z,101263.59
2023-01-20T06:12:36.439Z,101255.69
2023-01-20T06:14:39.153Z,101250.38
2023-01-20T06:16:41.914Z,101253.72
2023-01-20T06:18:45.012Z,101250.03
2023-01-20T06:20:47.993Z,101246.50
2023-01-20T06:22:55.369Z,101244.97
2023-01-20T06:24:58.026Z,101259.50
2023-01-20T06:27:00.680Z,101256.00
2023-01-20T06:29:03.540Z,101266.72
2023-01-20T06:31:15.211Z,101257.34
2023-01-20T06:33:17.989Z,101253.47
2023-01-20T06:35:21.463Z,101243.22
2023-01-20T06:37:24.201Z,101244.88
2023-01-20T06:39:27.401Z,101251.34
2023-01-20T06:41:30.193Z,101256.03
2023-01-20T06:43:34.597Z,101246.47
2023-01-20T06:45:38.692Z,101249.75
2023-01-20T06:47:41.359Z,101255.31
2023-01-20T06:49:44.000Z,101256.28
2023-01-20T06:51:48.962Z,101245.56
2023-01-20T06:53:51.639Z,101259.94
2023-01-20T06:55:57.096Z,101261.94
2023-01-20T06:57:59.882Z,101266.56
2023-01-20T07:00:02.984Z,101259.50
2023-01-20T07:02:07.683Z,101267.72
2023-01-20T07:04:14.748Z,101270.94
2023-01-20T07:06:26.340Z,101271.94
2023-01-20T07:08:29.336Z,101292.84
2023-01-20T07:10:32.098Z,101293.50
2023-01-20T07:12:34.774Z,101298.50
2023-01-20T07:14:37.439Z,101300.78
2023-01-20T07:16:58.544Z,101302.50
2023-01-20T07:19:01.217Z,101300.34
2023-01-20T07:21:05.028Z,101311.00
2023-01-20T07:23:07.805Z,101311.31
2023-01-20T07:25:10.648Z,101307.44
2023-01-20T07:27:15.480Z,101315.31
2023-01-20T07:29:18.413Z,101310.47
2023-01-20T07:31:23.912Z,101309.66
2023-01-20T07:33:26.685Z,101312.13
2023-01-20T07:35:29.381Z,101313.00
2023-01-20T07:37:32.123Z,101307.66
2023-01-20T07:39:36.627Z,101293.56
2023-01-20T07:41:39.487Z,101307.28
2023-01-20T07:43:46.586Z,101295.75
2023-01-20T07:45:49.237Z,101302.25
2023-01-20T07:47:55.441Z,101286.88
2023-01-20T07:49:58.254Z,101302.44
2023-01-20T07:52:00.922Z,101291.41
2023-01-20T07:54:04.735Z,101290.06
2023-01-20T07:56:28.352Z,101307.63
2023-01-20T07:58:31.518Z,101298.91
2023-01-20T08:00:34.360Z,101307.56
2023-01-20T08:02:38.785Z,101304.50
2023-01-20T08:04:41.686Z,101308.66
2023-01-20T08:06:44.422Z,101305.16
2023-01-20T08:08:47.423Z,101302.38
2023-01-20T08:10:56.280Z,101304.94
2023-01-20T08:12:59.231Z,101304.41
2023-01-20T08:15:01.880Z,101305.69
2023-01-20T08:17:04.868Z,101312.72
2023-01-20T08:19:07.664Z,101318.09
2023-01-20T08:21:22.376Z,101314.03
2023-01-20T08:23:25.117Z,101297.28
2023-01-20T08:25:27.877Z,101302.28
2023-01-20T08:27:30.565Z,101299.72
2023-01-20T08:29:33.850Z,101301.59
2023-01-20T08:31:37.626Z,101309.78
2023-01-20T08:33:42.854Z,101317.25
2023-01-20T08:35:45.602Z,101317.00
2023-01-20T08:37:48.304Z,101317.78
2023-01-20T08:39:51.026Z,101305.06
2023-01-20T08:41:54.048Z,101302.56
2023-01-20T08:43:59.219Z,101308.25
2023-01-20T08:46:04.097Z,101310.28
2023-01-20T08:48:08.907Z,101313.75
2023-01-20T08:50:14.277Z,101314.19
2023-01-20T08:52:17.074Z,101314.41
2023-01-20T08:54:19.957Z,101317.19
2023-01-20T08:56:22.863Z,101327.50
2023-01-20T08:58:26.183Z,101323.16
2023-01-20T09:00:28.898Z,101323.06
2023-01-20T09:02:31.812Z,101324.25
2023-01-20T09:04:37.487Z,101328.06
2023-01-20T09:06:41.740Z,101319.00
2023-01-20T09:08:44.636Z,101316.34
2023-01-20T09:10:47.740Z,101312.06
2023-01-20T09:12:50.370Z,101311.16
2023-01-20T09:14:53.150Z,101321.00
2023-01-20T09:16:55.851Z,101316.81
2023-01-20T09:18:58.575Z,101313.78
2023-01-20T09:21:03.033Z,101310.50
2023-01-20T09:23:06.038Z,101312.19
2023-01-20T09:25:10.017Z,101305.41
2023-01-20T09:27:12.746Z,101305.69
2023-01-20T09:29:18.237Z,101310.50
2023-01-20T09:31:21.097Z,101309.50
2023-01-20T09:33:23.949Z,101310.50
2023-01-20T09:35:29.596Z,101317.19
2023-01-20T09:37:55.403Z,101294.88
2023-01-20T09:40:16.786Z,101282.25
2023-01-20T09:43:10.240Z,101293.94
2023-01-20T09:45:32.831Z,101271.97
2023-01-20T09:47:46.761Z,101273.81
2023-01-20T09:50:35.521Z,101276.88
2023-01-20T09:52:57.716Z,101268.72
2023-01-20T09:55:08.422Z,101276.88
2023-01-20T09:57:14.203Z,101269.47
2023-01-20T09:59:42.825Z,101273.06
2023-01-20T10:01:54.197Z,101284.47
2023-01-20T10:03:59.738Z,101286.25
2023-01-20T10:06:07.661Z,101276.97
2023-01-20T10:08:10.503Z,101287.53
2023-01-20T10:10:23.678Z,101289.19
2023-01-20T10:12:32.364Z,101292.34
2023-01-20T10:14:43.677Z,101291.78
2023-01-20T10:17:24.922Z,101297.63
2023-01-20T10:19:49.930Z,101297.44
2023-01-20T10:21:58.878Z,101291.38
2023-01-20T10:24:10.475Z,101295.34
2023-01-20T10:26:42.132Z,101283.84
2023-01-20T10:28:53.613Z,101283.78
2023-01-20T10:31:03.551Z,101284.06
2023-01-20T10:33:13.441Z,101288.31
2023-01-20T10:35:21.412Z,101290.84
2023-01-20T10:37:28.140Z,101300.41
2023-01-20T10:39:52.861Z,101302.25
2023-01-20T10:42:05.146Z,101298.44
2023-01-20T10:44:12.294Z,101307.44
2023-01-20T10:46:39.394Z,101305.31
2023-01-20T10:49:27.861Z,101306.06
2023-01-20T10:51:54.225Z,101309.84
2023-01-20T10:54:37.189Z,101312.19
2023-01-20T10:56:53.636Z,101315.78
2023-01-20T10:59:00.143Z,101313.84
2023-01-20T11:01:10.470Z,101332.69
2023-01-20T11:03:19.983Z,101330.53
2023-01-20T11:05:26.174Z,101335.53
2023-01-20T11:07:39.839Z,101345.00
2023-01-20T11:09:42.865Z,101334.81
2023-01-20T11:11:45.767Z,101340.72
2023-01-20T11:13:51.869Z,101346.94
2023-01-20T11:16:00.343Z,101355.00
2023-01-20T11:18:28.214Z,101347.19
2023-01-20T11:20:31.172Z,101334.88
2023-01-20T11:22:36.961Z,101330.06
2023-01-20T11:24:44.996Z,101333.00
2023-01-20T11:26:47.792Z,101339.13
2023-01-20T11:28:57.902Z,101331.63
2023-01-20T11:31:00.741Z,101341.47
2023-01-20T11:33:34.690Z,101338.13
2023-01-20T11:35:38.086Z,101338.31
2023-01-20T11:37:40.845Z,101327.94
2023-01-20T11:39:45.076Z,101326.44
2023-01-20T11:41:48.769Z,101326.63
2023-01-20T11:43:55.604Z,101309.84
2023-01-20T11:46:11.415Z,101317.34
2023-01-20T11:48:16.095Z,101329.50
2023-01-20T11:50:26.471Z,101322.84
2023-01-20T11:52:29.167Z,101327.84
2023-01-20T11:54:31.867Z,101326.00
2023-01-20T11:56:44.531Z,101322.47
2023-01-20T11:59:00.173Z,101312.09
2023-01-20T12:01:08.236Z,101318.13
2023-01-20T12:03:10.938Z,101308.69
2023-01-20T12:05:27.323Z,101317.41
2023-01-20T12:07:38.496Z,101318.31
2023-01-20T12:09:45.016Z,101329.81
2023-01-20T12:12:03.362Z,101315.16
2023-01-20T12:14:25.212Z,101318.69
2023-01-20T12:16:31.000Z,101316.00
2023-01-20T12:18:56.907Z,101319.06
2023-01-20T12:21:18.368Z,101320.59
2023-01-20T12:23:39.486Z,101334.81
2023-01-20T12:26:01.026Z,101323.13
2023-01-20T12:28:12.331Z,101326.91
2023-01-20T12:30:45.162Z,101326.38
2023-01-20T12:32:48.279Z,101322.91
2023-01-20T12:34:51.707Z,101336.19
2023-01-20T12:37:14.140Z,101331.91
2023-01-20T12:39:29.845Z,101329.22
2023-01-20T12:42:02.721Z,101337.16
2023-01-20T12:44:27.203Z,101346.59
2023-01-20T12:47:00.961Z,101348.09
2023-01-20T12:49:25.448Z,101352.31
2023-01-20T12:51:30.911Z,101355.81
2023-01-20T12:54:03.852Z,101352.97
2023-01-20T12:56:32.367Z,101359.88
2023-01-20T12:59:02.355Z,101374.69
2023-01-20T13:01:38.232Z,101361.31
2023-01-20T13:03:59.325Z,101354.28
2023-01-20T13:06:35.007Z,101359.25
2023-01-20T13:08:43.263Z,101365.25
2023-01-20T13:10:54.729Z,101369.47
2023-01-20T13:13:18.421Z,101352.72
2023-01-20T13:15:29.839Z,101362.75
2023-01-20T13:17:44.894Z,101365.81
2023-01-20T13:19:49.713Z,101366.34
2023-01-20T13:22:06.763Z,101372.22
2023-01-20T13:24:19.796Z,101367.25
2023-01-20T13:26:22.687Z,101368.69
2023-01-20T13:28:28.869Z,101378.03
2023-01-20T13:30:37.629Z,101387.47
2023-01-20T13:32:45.475Z,101373.47
2023-01-20T13:34:50.567Z,101384.00
2023-01-20T13:37:02.608Z,101375.13
2023-01-20T13:39:30.330Z,101381.66
2023-01-20T13:41:53.037Z,101379.81
2023-01-20T13:43:55.731Z,101380.19
2023-01-20T13:46:04.519Z,101382.81
2023-01-20T13:48:07.274Z,101397.06
2023-01-20T13:50:27.498Z,101392.09
2023-01-20T13:52:54.504Z,101400.28
2023-01-20T13:54:57.827Z,101395.75
2023-01-20T13:57:23.502Z,101400.13
2023-01-20T13:59:26.164Z,101387.59
2023-01-20T14:01:28.971Z,101387.94
2023-01-20T14:03:39.006Z,101392.78
2023-01-20T14:05:42.119Z,101388.56
2023-01-20T14:07:45.728Z,101386.22
2023-01-20T14:09:57.241Z,101387.56
2023-01-20T14:12:00.088Z,101402.31
2023-01-20T14:14:07.826Z,101395.13
2023-01-20T14:16:23.044Z,101398.63
2023-01-20T14:18:27.273Z,101391.06
2023-01-20T14:20:30.815Z,101385.19
2023-01-20T14:22:33.522Z,101378.31
2023-01-20T14:24:38.082Z,101379.50
2023-01-20T14:26:40.754Z,101391.47
2023-01-20T14:28:54.353Z,101389.94
2023-01-20T14:31:24.597Z,101397.34
2023-01-20T14:33:28.116Z,101383.63
2023-01-20T14:35:34.025Z,101380.81
2023-01-20T14:37:39.134Z,101386.00
2023-01-20T14:39:49.693Z,101385.84
2023-01-20T14:41:58.002Z,101389.72
2023-01-20T14:44:02.056Z,101397.59
2023-01-20T14:46:05.628Z,101389.41
2023-01-20T14:48:13.621Z,101397.59
2023-01-20T14:50:20.853Z,101399.91
2023-01-20T14:52:29.619Z,101399.09
2023-01-20T14:54:44.840Z,101402.94
2023-01-20T14:56:48.660Z,101403.97
2023-01-20T14:58:54.985Z,101407.16
2023-01-20T15:01:03.175Z,101398.78
2023-01-20T15:03:23.737Z,101401.31
2023-01-20T15:05:28.567Z,101401.97
2023-01-20T15:07:31.350Z,101413.03
2023-01-20T15:09:35.151Z,101415.53
2023-01-20T15:11:37.954Z,101405.31
2023-01-20T15:14:08.891Z,101414.22
2023-01-20T15:16:49.706Z,101421.06
2023-01-20T15:19:14.403Z,101419.88
2023-01-20T15:21:27.764Z,101414.38
2023-01-20T15:23:33.317Z,101408.34
2023-01-20T15:25:37.804Z,101420.72
2023-01-20T15:27:40.533Z,101412.53
2023-01-20T15:29:43.917Z,101414.69
2023-01-20T15:31:46.716Z,101422.56
2023-01-20T15:33:49.571Z,101430.91
2023-01-20T15:35:57.881Z,101423.94
2023-01-20T15:38:00.714Z,101415.41
2023-01-20T15:40:06.048Z,101433.78
2023-01-20T15:42:12.074Z,101422.59
2023-01-20T15:44:16.031Z,101424.25
2023-01-20T15:46:19.757Z,101413.03
2023-01-20T15:48:22.632Z,101417.59
2023-01-20T15:50:26.875Z,101425.28
2023-01-20T15:52:29.594Z,101418.25
2023-01-20T15:54:32.286Z,101425.09
2023-01-20T15:56:36.204Z,101416.56
2023-01-20T15:58:39.047Z,101430.75
2023-01-20T16:00:43.454Z,101416.38
2023-01-20T16:02:46.344Z,101436.59
2023-01-20T16:04:49.687Z,101423.75
2023-01-20T16:06:52.585Z,101433.78
2023-01-20T16:08:55.485Z,101427.09
2023-01-20T16:10:58.245Z,101426.44
2023-01-20T16:13:00.993Z,101415.22
2023-01-20T16:15:03.924Z,101416.72
2023-01-20T16:17:18.623Z,101421.91
2023-01-20T16:19:21.446Z,101420.41
2023-01-20T16:21:24.118Z,101405.50
2023-01-20T16:23:26.792Z,101405.69
2023-01-20T16:25:30.383Z,101401.53
2023-01-20T16:27:32.961Z,101383.94
2023-01-20T16:29:35.621Z,101404.19
2023-01-20T16:31:38.328Z,101399.34
2023-01-20T16:33:41.010Z,101399.66
2023-01-20T16:35:43.817Z,101402.66
2023-01-20T16:37:47.778Z,101410.16
2023-01-20T16:39:50.496Z,101401.66
2023-01-20T16:41:53.216Z,101397.28
2023-01-20T16:43:56.909Z,101395.28
2023-01-20T16:45:59.608Z,101395.63
2023-01-20T16:48:02.267Z,101407.97
2023-01-20T16:50:05.243Z,101398.13
2023-01-20T16:52:07.927Z,101405.97
2023-01-20T16:54:10.986Z,101411.34
2023-01-20T16:56:15.590Z,101406.13
2023-01-20T16:58:18.440Z,101413.19
2023-01-20T17:00:22.149Z,101410.81
2023-01-20T17:02:25.130Z,101409.78
2023-01-20T17:04:28.805Z,101419.00
2023-01-20T17:06:34.347Z,101416.50
2023-01-20T17:08:37.007Z,101434.88
2023-01-20T17:10:39.657Z,101414.50
2023-01-20T17:12:42.256Z,101428.34
2023-01-20T17:14:44.997Z,101412.66
2023-01-20T17:16:47.628Z,101418.81
2023-01-20T17:18:55.407Z,101413.00
2023-01-20T17:20:58.130Z,101418.72
2023-01-20T17:23:00.909Z,101421.19
2023-01-20T17:25:04.884Z,101427.72
2023-01-20T17:27:08.947Z,101423.38
2023-01-20T17:29:11.796Z,101432.72
2023-01-20T17:31:15.107Z,101424.84
2023-01-20T17:33:17.752Z,101438.91
2023-01-20T17:35:20.513Z,101436.22
2023-01-20T17:37:23.217Z,101433.41
2023-01-20T17:39:25.883Z,101440.41
2023-01-20T17:41:28.694Z,101432.03
2023-01-20T17:43:43.618Z,101424.38
2023-01-20T17:45:46.292Z,101430.06
2023-01-20T17:47:52.494Z,101428.53
2023-01-20T17:49:55.219Z,101439.72
2023-01-20T17:51:57.858Z,101434.91
2023-01-20T17:54:03.636Z,101438.56
2023-01-20T17:56:12.799Z,101433.06
2023-01-20T17:58:16.088Z,101437.94
2023-01-20T18:00:20.388Z,101440.75
2023-01-20T18:02:23.155Z,101433.59
2023-01-20T18:04:25.846Z,101447.47
2023-01-20T18:06:28.815Z,101448.47
2023-01-20T18:08:31.464Z,101435.06
2023-01-20T18:10:34.018Z,101457.13
2023-01-20T18:12:36.655Z,101462.50
2023-01-20T18:14:39.312Z,101456.16
2023-01-20T18:16:42.410Z,101461.31
2023-01-20T18:18:46.710Z,101471.03
2023-01-20T18:20:49.369Z,101463.81
2023-01-20T18:22:52.079Z,101472.34
2023-01-20T18:24:54.635Z,101470.50
2023-01-20T18:26:57.974Z,101477.56
2023-01-20T18:29:03.825Z,101482.22
2023-01-20T18:31:10.695Z,101476.88
2023-01-20T18:33:13.466Z,101476.00
2023-01-20T18:35:16.175Z,101472.84
2023-01-20T18:37:18.795Z,101467.84
2023-01-20T18:39:23.622Z,101470.16
2023-01-20T18:41:28.235Z,101468.47
2023-01-20T18:43:31.479Z,101467.81
2023-01-20T18:45:34.187Z,101470.13
2023-01-20T18:47:36.853Z,101464.13
2023-01-20T18:49:39.399Z,101479.31
2023-01-20T18:51:43.274Z,101479.50
2023-01-20T18:53:47.829Z,101479.50
2023-01-20T18:55:50.424Z,101475.13
2023-01-20T18:57:58.332Z,101482.47
2023-01-20T19:00:00.932Z,101479.78
2023-01-20T19:02:03.661Z,101472.44
2023-01-20T19:04:09.702Z,101479.78
2023-01-20T19:06:17.235Z,101473.97
2023-01-20T19:08:19.896Z,101478.59
2023-01-20T19:10:22.545Z,101466.41
2023-01-20T19:12:25.146Z,101471.59
2023-01-20T19:14:28.039Z,101465.03
2023-01-20T19:16:32.833Z,101481.09
2023-01-20T19:18:35.536Z,101476.06
2023-01-20T19:20:38.130Z,101476.88
2023-01-20T19:22:40.871Z,101479.72
2023-01-20T19:24:43.461Z,101480.72
2023-01-20T19:26:46.626Z,101472.03
2023-01-20T19:29:00.834Z,101477.38
2023-01-20T19:31:24.161Z,101477.22
2023-01-20T19:33:26.944Z,101478.06
2023-01-20T19:35:31.769Z,101492.38
2023-01-20T19:37:34.459Z,101483.19
2023-01-20T19:39:37.103Z,101483.78
2023-01-20T19:41:39.791Z,101490.81
2023-01-20T19:43:43.503Z,101498.81
2023-01-20T19:45:46.382Z,101505.03
2023-01-20T19:47:49.031Z,101507.00
2023-01-20T19:49:51.731Z,101499.63
2023-01-20T19:51:54.334Z,101510.31
2023-01-20T19:53:58.673Z,101510.78
2023-01-20T19:56:06.189Z,101502.94
2023-01-20T19:58:08.907Z,101501.56
2023-01-20T20:00:12.368Z,101486.72
2023-01-20T20:02:15.016Z,101504.94
2023-01-20T20:04:20.741Z,101507.75
2023-01-20T20:06:27.777Z,101503.69
2023-01-20T20:08:30.495Z,101501.50
2023-01-20T20:10:33.108Z,101503.19
2023-01-20T20:12:35.747Z,101493.34
2023-01-20T20:14:38.502Z,101501.56
2023-01-20T20:16:41.571Z,101508.34
2023-01-20T20:18:48.348Z,101505.84
2023-01-20T20:20:50.958Z,101506.72
2023-01-20T20:22:54.127Z,101505.22
2023-01-20T20:24:56.856Z,101517.75
2023-01-20T20:26:59.570Z,101510.94
2023-01-20T20:29:04.205Z,101506.25
2023-01-20T20:31:08.948Z,101513.63
2023-01-20T20:33:11.899Z,101507.41
2023-01-20T20:35:14.715Z,101511.78
2023-01-20T20:37:18.451Z,101519.78
2023-01-20T20:39:21.722Z,101508.28
2023-01-20T20:41:31.240Z,101514.75
2023-01-20T20:43:35.492Z,101520.31
2023-01-20T20:45:38.058Z,101512.16
2023-01-20T20:47:40.673Z,101509.84
2023-01-20T20:49:43.333Z,101523.41
2023-01-20T20:51:46.106Z,101519.44
2023-01-20T20:53:48.719Z,101516.56
2023-01-20T20:55:55.377Z,101510.06
2023-01-20T20:57:58.068Z,101528.78
2023-01-20T21:00:00.708Z,101522.13
2023-01-20T21:02:03.448Z,101513.44
2023-01-20T21:04:06.131Z,101515.97
2023-01-20T21:06:11.177Z,101514.66
2023-01-20T21:08:13.761Z,101516.31
2023-01-20T21:10:17.948Z,101525.34
2023-01-20T21:12:20.722Z,101539.38
2023-01-20T21:14:24.013Z,101518.16
2023-01-20T21:16:27.743Z,101536.34
2023-01-20T21:18:31.437Z,101534.13
2023-01-20T21:20:34.176Z,101549.19
2023-01-20T21:22:36.949Z,101542.94
2023-01-20T21:24:39.607Z,101546.91
2023-01-20T21:26:43.215Z,101540.22
2023-01-20T21:28:49.359Z,101549.19
2023-01-20T21:30:52.358Z,101528.66
2023-01-20T21:32:54.971Z,101542.47
2023-01-20T21:34:59.170Z,101533.78
2023-01-20T21:37:01.819Z,101530.88
2023-01-20T21:39:05.586Z,101532.56
2023-01-20T21:41:10.174Z,101531.06
2023-01-20T21:43:31.280Z,101526.69
2023-01-20T21:45:33.916Z,101530.03
2023-01-20T21:47:36.653Z,101522.34
2023-01-20T21:49:57.826Z,101531.19
2023-01-20T21:52:19.076Z,101516.00
2023-01-20T21:54:21.797Z,101525.34
2023-01-20T21:56:24.432Z,101536.69
2023-01-20T21:58:26.991Z,101532.03
2023-01-20T22:00:30.031Z,101531.34
2023-01-20T22:02:32.751Z,101533.19
2023-01-20T22:04:35.476Z,101535.16
2023-01-20T22:06:38.208Z,101539.31
2023-01-20T22:08:40.818Z,101535.25
2023-01-20T22:10:43.471Z,101546.41
2023-01-20T22:12:46.101Z,101536.97
2023-01-20T22:14:48.768Z,101543.44
2023-01-20T22:16:51.455Z,101546.44
2023-01-20T22:18:54.522Z,101549.25
2023-01-20T22:21:07.153Z,101561.59
2023-01-20T22:23:10.233Z,101561.06
2023-01-20T22:25:12.888Z,101560.22
2023-01-20T22:27:15.486Z,101567.69
2023-01-20T22:29:18.796Z,101569.16
2023-01-20T22:31:23.646Z,101570.66
2023-01-20T22:33:26.327Z,101556.19
2023-01-20T22:35:30.430Z,101565.03
2023-01-20T22:37:33.105Z,101568.25
2023-01-20T22:39:36.047Z,101561.38
2023-01-20T22:41:38.821Z,101547.41
2023-01-20T22:43:44.335Z,101557.16
2023-01-20T22:45:48.328Z,101556.56
2023-01-20T22:47:51.264Z,101553.28
2023-01-20T22:49:56.888Z,101578.00
2023-01-20T22:51:59.593Z,101580.72
2023-01-20T22:54:02.591Z,101566.72
2023-01-20T22:56:17.261Z,101577.41
2023-01-20T22:58:19.870Z,101581.59
2023-01-20T23:00:24.287Z,101585.41
2023-01-20T23:02:27.028Z,101584.72
2023-01-20T23:04:29.726Z,101578.13
2023-01-20T23:06:35.408Z,101592.31
2023-01-20T23:08:39.011Z,101595.03
2023-01-20T23:10:47.799Z,101602.22
2023-01-20T23:12:51.972Z,101587.03
2023-01-20T23:15:00.694Z,101596.88
2023-01-20T23:17:03.372Z,101597.31
2023-01-20T23:19:06.852Z,101580.63
2023-01-20T23:21:09.808Z,101577.44
2023-01-20T23:23:12.455Z,101584.59
2023-01-20T23:25:15.206Z,101587.28
2023-01-20T23:27:17.899Z,101583.75
2023-01-20T23:29:20.499Z,101569.25
2023-01-20T23:31:25.430Z,101582.75
2023-01-20T23:33:28.212Z,101591.22
2023-01-20T23:35:30.921Z,101603.84
2023-01-20T23:37:33.779Z,101597.69
2023-01-20T23:39:36.395Z,101608.63
2023-01-20T23:41:39.014Z,101606.13
2023-01-20T23:43:42.465Z,101604.75
2023-01-20T23:45:45.086Z,101596.88
2023-01-20T23:47:47.719Z,101592.69
2023-01-20T23:49:51.245Z,101589.31
2023-01-20T23:51:53.902Z,101605.19
2023-01-20T23:53:57.051Z,101597.63
2023-01-20T23:56:04.655Z,101589.09
2023-01-20T23:58:07.263Z,101582.22
